Time;durP1;ratioP1;P1;durP2;ratioP2;P2;SDS_P1;SDS_P2;PMS_P1;PMS_P2;Temp;Humidity;BMP_temperature;BMP_pressure;BME280_temperature;BME280_humidity;BME280_pressure;Samples;Min_cycle;Max_cycle;Signal;HPM_P1;HPM_P2
2022/08/26 00:01:54;;;;;;;8.80;4.03;;;;;;;;;;4992451;28;94795;-72
2022/08/26 00:04:22;;;;;;;10.45;4.75;;;;;;;;;;4989417;28;95814;-72
2022/08/26 00:06:48;;;;;;;9.40;4.07;;;;;;;;;;4996854;28;94122;-72
2022/08/26 00:09:14;;;;;;;14.05;5.00;;;;;;;;;;4993747;28;92893;-72
2022/08/26 00:11:44;;;;;;;11.65;4.75;;;;;;;;;;4994915;28;92450;-72
2022/08/26 00:14:13;;;;;;;8.52;4.05;;;;;;;;;;4994417;28;94429;-72
2022/08/26 00:16:40;;;;;;;18.52;4.75;;;;;;;;;;4993875;28;93138;-72
2022/08/26 00:19:18;;;;;;;10.93;4.25;;;;;;;;;;4995980;28;92631;-72
2022/08/26 00:21:46;;;;;;;13.10;3.63;;;;;;;;;;4993218;28;92624;-72
2022/08/26 00:24:14;;;;;;;16.20;4.50;;;;;;;;;;4995084;28;93927;-72
2022/08/26 00:26:40;;;;;;;8.02;3.35;;;;;;;;;;4997023;28;96567;-72
2022/08/26 00:29:08;;;;;;;10.90;3.13;;;;;;;;;;5018588;28;92553;-72
2022/08/26 00:31:34;;;;;;;5.88;3.60;;;;;;;;;;4997885;28;94214;-72
2022/08/26 00:34:02;;;;;;;9.38;3.65;;;;;;;;;;4997187;28;92470;-72
2022/08/26 00:36:29;;;;;;;7.82;3.00;;;;;;;;;;4997218;28;92499;-72
2022/08/26 00:38:56;;;;;;;6.22;2.75;;;;;;;;;;4997116;28;93494;-72
2022/08/26 00:41:22;;;;;;;10.38;3.58;;;;;;;;;;4996867;28;93493;-72
2022/08/26 00:43:49;;;;;;;8.68;3.65;;;;;;;;;;4997290;28;93851;-73
2022/08/26 00:46:20;;;;;;;12.45;3.95;;;;;;;;;;4997918;28;93335;-72
2022/08/26 00:48:48;;;;;;;10.60;3.50;;;;;;;;;;5011831;28;92420;-72
2022/08/26 00:51:17;;;;;;;7.20;3.22;;;;;;;;;;4995399;28;96335;-72
2022/08/26 00:53:46;;;;;;;6.75;2.90;;;;;;;;;;5013572;28;92433;-72
2022/08/26 00:56:25;;;;;;;5.82;2.83;;;;;;;;;;4996974;28;93925;-72
2022/08/26 00:58:52;;;;;;;13.73;3.17;;;;;;;;;;5005377;28;94236;-72
2022/08/26 01:01:18;;;;;;;10.18;3.10;;;;;;;;;;4997394;28;92777;-72
2022/08/26 01:03:48;;;;;;;13.05;3.97;;;;;;;;;;4996937;28;92768;-72
2022/08/26 01:06:15;;;;;;;8.82;2.80;;;;;;;;;;4997987;28;93582;-72
2022/08/26 01:08:41;;;;;;;7.72;2.50;;;;;;;;;;4995934;28;91765;-72
2022/08/26 01:11:08;;;;;;;9.18;3.50;;;;;;;;;;4999838;28;93091;-72
2022/08/26 01:13:36;;;;;;;10.40;2.83;;;;;;;;;;4990408;28;92512;-72
2022/08/26 01:16:04;;;;;;;9.65;3.05;;;;;;;;;;4994830;28;94901;-72
2022/08/26 01:18:31;;;;;;;8.88;2.70;;;;;;;;;;4997279;28;93096;-72
2022/08/26 01:21:04;;;;;;;7.47;2.90;;;;;;;;;;4995505;28;93166;-72
2022/08/26 01:23:32;;;;;;;7.15;2.40;;;;;;;;;;4996687;28;93093;-72
2022/08/26 01:26:01;;;;;;;5.07;2.53;;;;;;;;;;4997110;28;93369;-72
2022/08/26 01:28:30;;;;;;;5.55;2.28;;;;;;;;;;4995201;28;92498;-72
2022/08/26 01:30:56;;;;;;;6.40;2.03;;;;;;;;;;4997239;28;93091;-72
2022/08/26 01:33:26;;;;;;;10.18;2.60;;;;;;;;;;4999548;28;92335;-72
2022/08/26 01:35:53;;;;;;;2.72;1.92;;;;;;;;;;4995268;28;92903;-72
2022/08/26 01:38:20;;;;;;;4.28;2.17;;;;;;;;;;4996743;28;94427;-72
2022/08/26 01:40:49;;;;;;;7.57;2.95;;;;;;;;;;4994182;28;96405;-72
2022/08/26 01:43:17;;;;;;;6.80;2.00;;;;;;;;;;4995152;28;95759;-72
2022/08/26 01:45:47;;;;;;;7.53;2.28;;;;;;;;;;4997002;28;93991;-72
2022/08/26 01:48:16;;;;;;;7.65;2.35;;;;;;;;;;4997487;28;92495;-72
2022/08/26 01:50:43;;;;;;;9.25;2.50;;;;;;;;;;4995982;28;93969;-72
2022/08/26 01:53:11;;;;;;;8.50;2.35;;;;;;;;;;4995892;28;93487;-72
2022/08/26 01:55:40;;;;;;;8.85;2.33;;;;;;;;;;4998825;28;92341;-72
2022/08/26 01:58:08;;;;;;;4.28;2.50;;;;;;;;;;4996686;28;92983;-72
2022/08/26 02:00:35;;;;;;;5.47;2.10;;;;;;;;;;4996233;28;92434;-72
2022/08/26 02:03:20;;;;;;;5.50;1.65;;;;;;;;;;4994923;28;93910;-72
2022/08/26 02:05:52;;;;;;;7.63;2.28;;;;;;;;;;4999503;28;95697;-72
2022/08/26 09:07:44;;;;;;;7.75;1.30;;;;;;;;;;4996477;28;93031;-74
2022/08/26 09:10:26;;;;;;;6.13;1.77;;;;;;;;;;4997414;28;92411;-75
2022/08/26 09:12:53;;;;;;;5.07;1.20;;;;;;;;;;4999756;28;94418;-74
2022/08/26 09:15:25;;;;;;;7.07;1.38;;;;;;;;;;5001005;28;92903;-74
2022/08/26 09:17:56;;;;;;;7.93;1.30;;;;;;;;;;4996265;28;93247;-73
2022/08/26 09:20:41;;;;;;;6.93;1.23;;;;;;;;;;4994074;28;96569;-74
2022/08/26 09:23:10;;;;;;;6.57;1.25;;;;;;;;;;5012512;28;92435;-74
2022/08/26 09:25:43;;;;;;;6.80;1.20;;;;;;;;;;5004989;28;93899;-73
2022/08/26 09:28:14;;;;;;;4.45;1.27;;;;;;;;;;4996915;28;92996;-74
2022/08/26 09:30:40;;;;;;;12.40;2.03;;;;;;;;;;5003540;28;92479;-74
2022/08/26 09:33:10;;;;;;;9.40;1.40;;;;;;;;;;4992618;28;93985;-74
2022/08/26 09:35:46;;;;;;;3.80;1.70;;;;;;;;;;5010459;28;94160;-74
2022/08/26 09:38:25;;;;;;;4.57;1.05;;;;;;;;;;4997245;28;91879;-73
2022/08/26 09:41:03;;;;;;;7.15;1.27;;;;;;;;;;4995913;28;93284;-73
2022/08/26 09:43:30;;;;;;;3.47;1.30;;;;;;;;;;4996613;28;92333;-73
2022/08/26 09:46:09;;;;;;;7.78;1.88;;;;;;;;;;4994920;28;94813;-73
2022/08/26 09:48:38;;;;;;;8.13;1.83;;;;;;;;;;4996583;28;93709;-73
2022/08/26 09:51:25;;;;;;;7.35;1.40;;;;;;;;;;4996180;28;94784;-73
2022/08/26 09:53:54;;;;;;;4.00;1.30;;;;;;;;;;5000014;28;92633;-73
2022/08/26 09:56:25;;;;;;;7.97;1.08;;;;;;;;;;4995875;28;94118;-73
2022/08/26 09:58:53;;;;;;;6.03;1.08;;;;;;;;;;4999001;28;93540;-73
2022/08/26 10:01:22;;;;;;;9.02;1.48;;;;;;;;;;4995529;28;93611;-73
2022/08/26 10:03:50;;;;;;;6.60;1.55;;;;;;;;;;4996663;28;91628;-73
2022/08/26 10:06:16;;;;;;;6.53;1.27;;;;;;;;;;4995999;28;93119;-73
2022/08/26 10:08:47;;;;;;;5.22;1.15;;;;;;;;;;5006489;28;93213;-73
2022/08/26 10:11:45;;;;;;;10.55;1.35;;;;;;;;;;4994707;28;94880;-73
2022/08/26 10:14:16;;;;;;;15.05;1.77;;;;;;;;;;4981929;28;96244;-73
2022/08/26 10:16:55;;;;;;;5.88;1.15;;;;;;;;;;4994040;28;93628;-73
2022/08/26 10:19:35;;;;;;;3.88;1.15;;;;;;;;;;5002223;28;92429;-73
2022/08/26 10:22:40;;;;;;;6.78;1.00;;;;;;;;;;4995213;28;93232;-73
2022/08/26 10:25:08;;;;;;;9.27;1.83;;;;;;;;;;5002388;28;92411;-73
2022/08/26 10:27:38;;;;;;;7.28;1.73;;;;;;;;;;5001890;28;93946;-73
2022/08/26 10:30:18;;;;;;;8.53;1.50;;;;;;;;;;5002055;28;93344;-73
2022/08/26 10:32:47;;;;;;;3.47;1.08;;;;;;;;;;5002686;28;92507;-73
2022/08/26 10:35:15;;;;;;;3.92;1.45;;;;;;;;;;4995732;28;92827;-73
2022/08/26 10:37:47;;;;;;;4.30;1.23;;;;;;;;;;4994615;28;96568;-73
2022/08/26 10:40:19;;;;;;;9.70;1.58;;;;;;;;;;5014966;28;92379;-73
2022/08/26 10:42:46;;;;;;;;;;;;;;;;;;5008218;28;93420;-73
2022/08/26 10:45:14;;;;;;;1.08;0.73;;;;;;;;;;4995289;28;116808;-73
2022/08/26 10:48:00;;;;;;;1.25;0.73;;;;;;;;;;4996462;28;94285;-73
2022/08/26 10:50:31;;;;;;;4.25;0.90;;;;;;;;;;4994975;28;94080;-73
2022/08/26 10:53:00;;;;;;;2.97;1.10;;;;;;;;;;4996007;28;92664;-73
2022/08/26 10:55:33;;;;;;;2.17;1.00;;;;;;;;;;5000995;28;93803;-73
2022/08/26 10:58:06;;;;;;;5.95;0.93;;;;;;;;;;4988142;28;95503;-73
2022/08/26 11:03:54;;;;;;;3.75;1.15;;;;;;;;;;4999842;28;94866;-73
2022/08/26 11:06:24;;;;;;;9.02;1.88;;;;;;;;;;4996743;28;93959;-73
2022/08/26 11:08:55;;;;;;;6.47;1.05;;;;;;;;;;4995946;28;92817;-73
2022/08/26 11:11:40;;;;;;;2.65;1.02;;;;;;;;;;4993374;28;94121;-73
2022/08/26 11:14:10;;;;;;;5.47;1.38;;;;;;;;;;4999783;28;93015;-73
2022/08/26 11:16:38;;;;;;;7.13;1.63;;;;;;;;;;5008543;28;93996;-73
2022/08/26 11:19:10;;;;;;;4.18;1.10;;;;;;;;;;4994949;28;94384;-73
2022/08/26 11:21:46;;;;;;;12.43;1.15;;;;;;;;;;5009128;28;91822;-73
2022/08/26 11:24:34;;;;;;;2.42;1.10;;;;;;;;;;4995434;28;92416;-73
2022/08/26 11:27:01;;;;;;;5.07;1.10;;;;;;;;;;4993760;28;94104;-73
2022/08/26 11:29:47;;;;;;;5.50;1.08;;;;;;;;;;5002321;28;94990;-73
2022/08/26 11:32:43;;;;;;;3.78;1.42;;;;;;;;;;4993243;28;94575;-73
2022/08/26 11:35:23;;;;;;;2.35;1.00;;;;;;;;;;4986287;28;92641;-73
2022/08/26 11:37:55;;;;;;;5.30;1.45;;;;;;;;;;4994589;28;93026;-73
2022/08/26 11:40:27;;;;;;;4.25;1.15;;;;;;;;;;4993518;28;93418;-73
2022/08/26 11:42:56;;;;;;;4.07;1.10;;;;;;;;;;4994743;28;92354;-73
2022/08/26 11:45:38;;;;;;;2.83;1.05;;;;;;;;;;4994835;28;93773;-73
2022/08/26 11:48:15;;;;;;;4.20;1.05;;;;;;;;;;4994562;28;92634;-73
2022/08/26 11:50:51;;;;;;;3.90;1.20;;;;;;;;;;5014012;28;92400;-74
2022/08/26 11:53:17;;;;;;;2.03;0.90;;;;;;;;;;4991220;28;93971;-73
2022/08/26 11:55:44;;;;;;;3.25;1.02;;;;;;;;;;4997613;28;94795;-73
2022/08/26 11:58:13;;;;;;;2.55;1.00;;;;;;;;;;4994636;28;95454;-73
2022/08/26 12:00:43;;;;;;;1.45;0.85;;;;;;;;;;4994591;28;94032;-73
2022/08/26 12:03:16;;;;;;;2.40;1.08;;;;;;;;;;5007382;28;92628;-73
2022/08/26 12:05:44;;;;;;;2.33;0.93;;;;;;;;;;5013954;28;93563;-73
2022/08/26 12:08:15;;;;;;;5.43;1.13;;;;;;;;;;4999869;28;94043;-73
2022/08/26 12:10:41;;;;;;;1.25;0.80;;;;;;;;;;5003897;28;92436;-72
2022/08/26 12:13:16;;;;;;;5.78;1.33;;;;;;;;;;4994764;28;92787;-73
2022/08/26 12:15:50;;;;;;;5.43;0.88;;;;;;;;;;4997118;28;94359;-73
2022/08/26 12:18:22;;;;;;;6.30;1.15;;;;;;;;;;4994302;28;94473;-72
2022/08/26 12:20:56;;;;;;;5.07;1.17;;;;;;;;;;4992589;28;96712;-73
2022/08/26 12:23:34;;;;;;;5.63;1.38;;;;;;;;;;4995917;28;92487;-73
2022/08/26 12:26:07;;;;;;;12.80;1.17;;;;;;;;;;4992619;28;94559;-72
2022/08/26 12:28:45;;;;;;;5.07;1.00;;;;;;;;;;4994795;28;94435;-73
2022/08/26 12:31:18;;;;;;;4.65;0.90;;;;;;;;;;4997356;28;92519;-72
2022/08/26 12:33:46;;;;;;;3.20;1.10;;;;;;;;;;5002375;28;94299;-72
2022/08/26 12:36:17;;;;;;;4.20;0.95;;;;;;;;;;4996685;28;94081;-72
2022/08/26 12:38:44;;;;;;;3.30;1.35;;;;;;;;;;5001289;28;91818;-73
2022/08/26 12:41:10;;;;;;;5.22;1.50;;;;;;;;;;4997230;28;94148;-72
2022/08/26 12:43:39;;;;;;;3.53;1.17;;;;;;;;;;4996443;28;92429;-73
2022/08/26 12:46:06;;;;;;;7.97;1.60;;;;;;;;;;4997261;28;96405;-73
2022/08/26 12:48:34;;;;;;;2.47;0.98;;;;;;;;;;5007962;28;94146;-73
2022/08/26 12:51:01;;;;;;;7.68;1.38;;;;;;;;;;5015525;28;92447;-73
2022/08/26 12:53:31;;;;;;;5.60;1.08;;;;;;;;;;4997451;28;92983;-73
2022/08/26 12:55:59;;;;;;;2.88;0.90;;;;;;;;;;5004862;28;94024;-73
2022/08/26 12:58:27;;;;;;;6.20;1.30;;;;;;;;;;5016932;28;92894;-73
2022/08/26 13:00:53;;;;;;;3.75;1.70;;;;;;;;;;4997585;28;94191;-73
2022/08/26 13:03:32;;;;;;;7.90;2.10;;;;;;;;;;4997627;28;91777;-72
2022/08/26 13:06:14;;;;;;;5.30;1.05;;;;;;;;;;4995192;28;92484;-73
2022/08/26 13:08:52;;;;;;;7.55;1.25;;;;;;;;;;4996884;28;93325;-72
2022/08/26 13:11:20;;;;;;;2.63;1.02;;;;;;;;;;4994208;28;94983;-73
2022/08/26 13:13:50;;;;;;;6.53;2.42;;;;;;;;;;4992042;28;95508;-73
2022/08/26 13:16:18;;;;;;;7.07;2.38;;;;;;;;;;4996919;28;95710;-73
2022/08/26 13:18:48;;;;;;;3.05;1.77;;;;;;;;;;4995620;28;92894;-73
2022/08/26 13:21:16;;;;;;;3.97;1.20;;;;;;;;;;5000897;28;95160;-73
2022/08/26 13:23:43;;;;;;;4.03;1.38;;;;;;;;;;4990309;28;92411;-73
2022/08/26 13:26:17;;;;;;;4.45;1.10;;;;;;;;;;4996077;28;93022;-73
2022/08/26 13:28:43;;;;;;;4.65;1.30;;;;;;;;;;4997474;28;92684;-73
2022/08/26 13:31:14;;;;;;;10.07;1.40;;;;;;;;;;4996708;28;92456;-73
2022/08/26 13:33:44;;;;;;;8.93;1.20;;;;;;;;;;5002039;28;94000;-73
2022/08/26 13:36:13;;;;;;;36.05;2.13;;;;;;;;;;4994183;28;96102;-73
2022/08/26 13:38:39;;;;;;;5.45;1.70;;;;;;;;;;4995997;28;92497;-73
2022/08/26 13:41:06;;;;;;;3.70;1.15;;;;;;;;;;4996511;28;93274;-73
2022/08/26 13:43:32;;;;;;;7.95;1.40;;;;;;;;;;4998870;28;93430;-72
2022/08/26 13:46:00;;;;;;;4.95;1.40;;;;;;;;;;4995906;28;92900;-73
2022/08/26 13:48:26;;;;;;;4.32;1.20;;;;;;;;;;4996341;28;93180;-72
2022/08/26 13:50:53;;;;;;;4.57;1.30;;;;;;;;;;4997003;28;92406;-73
2022/08/26 13:53:19;;;;;;;6.07;1.27;;;;;;;;;;4999697;28;95485;-73
2022/08/26 13:55:46;;;;;;;5.28;1.38;;;;;;;;;;5010535;28;94219;-73
2022/08/26 13:58:13;;;;;;;6.68;1.20;;;;;;;;;;4996656;28;92483;-73
2022/08/26 14:00:39;;;;;;;4.05;0.88;;;;;;;;;;5005653;28;96350;-73
2022/08/26 14:03:06;;;;;;;3.85;1.30;;;;;;;;;;4996248;28;93110;-73
2022/08/26 14:05:38;;;;;;;3.65;1.42;;;;;;;;;;5000282;28;93376;-73
2022/08/26 14:08:05;;;;;;;4.53;1.15;;;;;;;;;;4994984;28;94188;-73
2022/08/26 14:10:31;;;;;;;4.45;1.45;;;;;;;;;;4995972;28;92445;-73
2022/08/26 14:12:58;;;;;;;5.00;1.60;;;;;;;;;;4996406;28;92928;-73
2022/08/26 14:15:24;;;;;;;4.80;1.50;;;;;;;;;;4994963;28;93470;-72
2022/08/26 14:17:52;;;;;;;4.97;1.73;;;;;;;;;;4996403;28;91826;-72
2022/08/26 14:20:24;;;;;;;2.88;1.10;;;;;;;;;;4996958;28;93177;-72
2022/08/26 14:22:50;;;;;;;13.13;1.77;;;;;;;;;;4994042;28;94390;-72
2022/08/26 14:25:37;;;;;;;8.48;1.40;;;;;;;;;;4988156;28;94962;-71
2022/08/26 14:28:04;;;;;;;10.18;1.60;;;;;;;;;;4998516;28;96348;-71
2022/08/26 14:30:30;;;;;;;7.00;1.42;;;;;;;;;;4986707;28;93492;-71
2022/08/26 14:32:58;;;;;;;5.70;1.65;;;;;;;;;;4985858;28;94876;-71
2022/08/26 14:35:26;;;;;;;5.55;1.08;;;;;;;;;;4994535;28;93450;-71
2022/08/26 14:37:52;;;;;;;4.28;1.65;;;;;;;;;;4991203;28;92805;-73
2022/08/26 14:40:19;;;;;;;4.55;1.40;;;;;;;;;;4993934;28;93971;-71
2022/08/26 14:42:46;;;;;;;8.77;1.27;;;;;;;;;;4994730;28;92635;-70
2022/08/26 14:45:21;;;;;;;6.00;1.67;;;;;;;;;;4993572;28;92594;-71
2022/08/26 14:47:48;;;;;;;4.95;1.30;;;;;;;;;;4983891;28;93599;-71
2022/08/26 14:50:16;;;;;;;4.53;1.35;;;;;;;;;;4988879;28;95410;-72
2022/08/26 14:55:28;;;;;;;8.68;1.40;;;;;;;;;;4993521;28;93106;-72
2022/08/26 14:57:54;;;;;;;2.60;1.17;;;;;;;;;;4994463;28;93822;-73
2022/08/26 15:00:20;;;;;;;4.68;1.27;;;;;;;;;;4989281;28;92503;-72
2022/08/26 15:02:47;;;;;;;7.38;1.63;;;;;;;;;;4988121;28;93275;-72
2022/08/26 15:05:13;;;;;;;7.45;1.70;;;;;;;;;;4993434;28;92408;-72
2022/08/26 15:07:40;;;;;;;5.15;1.40;;;;;;;;;;4994749;28;93853;-73
2022/08/26 15:10:07;;;;;;;9.52;1.80;;;;;;;;;;4997726;28;95774;-72
2022/08/26 15:12:34;;;;;;;10.32;1.50;;;;;;;;;;4993069;28;92981;-72
2022/08/26 15:15:00;;;;;;;9.65;2.25;;;;;;;;;;4992970;28;95446;-72
2022/08/26 15:17:27;;;;;;;4.95;1.38;;;;;;;;;;4995394;28;92438;-73
2022/08/26 15:19:53;;;;;;;2.75;1.10;;;;;;;;;;4986883;28;94044;-72
2022/08/26 15:22:20;;;;;;;11.35;2.10;;;;;;;;;;4994313;28;93584;-72
2022/08/26 15:24:46;;;;;;;6.05;1.40;;;;;;;;;;4993827;28;92459;-72
2022/08/26 15:27:17;;;;;;;6.78;1.85;;;;;;;;;;4987842;28;93894;-72
2022/08/26 15:29:44;;;;;;;4.50;1.35;;;;;;;;;;4994452;28;94718;-72
2022/08/26 15:32:10;;;;;;;3.80;1.40;;;;;;;;;;4996297;28;93585;-72
2022/08/26 15:34:37;;;;;;;9.23;1.50;;;;;;;;;;4994646;28;93579;-72
2022/08/26 15:37:04;;;;;;;2.97;1.60;;;;;;;;;;4994572;28;92381;-72
2022/08/26 15:39:31;;;;;;;5.88;1.75;;;;;;;;;;4985548;28;94857;-72
2022/08/26 15:41:58;;;;;;;5.40;1.63;;;;;;;;;;4994101;28;94063;-72
2022/08/26 15:44:25;;;;;;;4.00;1.48;;;;;;;;;;4994664;28;92380;-72
2022/08/26 15:46:53;;;;;;;5.78;1.50;;;;;;;;;;4991817;28;93934;-72
2022/08/26 15:49:24;;;;;;;5.75;1.40;;;;;;;;;;4987741;28;94151;-72
2022/08/26 15:51:51;;;;;;;6.22;1.45;;;;;;;;;;4993658;28;92608;-72
2022/08/26 15:54:18;;;;;;;5.05;1.63;;;;;;;;;;4997122;28;93944;-72
2022/08/26 15:56:47;;;;;;;4.72;1.50;;;;;;;;;;4986985;28;92352;-73
2022/08/26 15:59:13;;;;;;;13.45;1.40;;;;;;;;;;4988768;28;93116;-73
2022/08/26 16:01:41;;;;;;;6.78;1.90;;;;;;;;;;4988703;28;93253;-73
2022/08/26 16:04:08;;;;;;;12.07;2.13;;;;;;;;;;4990246;28;95088;-73
2022/08/26 16:06:36;;;;;;;4.28;1.70;;;;;;;;;;4993949;28;96525;-73
2022/08/26 16:09:03;;;;;;;6.70;1.88;;;;;;;;;;4989009;28;93360;-73
2022/08/26 16:11:30;;;;;;;2.60;1.52;;;;;;;;;;4993345;28;93569;-73
2022/08/26 16:13:56;;;;;;;6.78;1.92;;;;;;;;;;4992986;28;93866;-73
2022/08/26 16:16:23;;;;;;;7.00;1.45;;;;;;;;;;4997382;28;94038;-73
2022/08/26 16:18:49;;;;;;;4.18;1.75;;;;;;;;;;4996102;28;93011;-73
2022/08/26 16:21:17;;;;;;;2.25;1.27;;;;;;;;;;4993217;28;92527;-73
2022/08/26 16:23:43;;;;;;;7.10;1.60;;;;;;;;;;4993869;28;92492;-72
2022/08/26 16:26:12;;;;;;;5.72;1.63;;;;;;;;;;4995160;28;92775;-73
2022/08/26 16:28:38;;;;;;;4.22;1.48;;;;;;;;;;4991153;28;94834;-73
2022/08/26 16:31:05;;;;;;;5.90;1.70;;;;;;;;;;4995969;28;92484;-72
2022/08/26 16:33:32;;;;;;;3.40;1.77;;;;;;;;;;5005836;28;94091;-72
2022/08/26 16:35:58;;;;;;;6.95;1.60;;;;;;;;;;4992697;28;94073;-73
2022/08/26 16:38:25;;;;;;;4.78;1.75;;;;;;;;;;5003890;28;92355;-73
2022/08/26 16:40:51;;;;;;;6.68;1.40;;;;;;;;;;4993016;28;92388;-73
2022/08/26 16:43:17;;;;;;;6.45;1.85;;;;;;;;;;4993131;28;92514;-72
2022/08/26 16:45:43;;;;;;;4.57;1.77;;;;;;;;;;5000799;28;94044;-73
2022/08/26 16:48:10;;;;;;;3.67;1.52;;;;;;;;;;4994157;28;94192;-73
2022/08/26 16:50:36;;;;;;;2.88;1.67;;;;;;;;;;4992931;28;92445;-72
2022/08/26 16:53:03;;;;;;;3.22;1.38;;;;;;;;;;4996827;28;94836;-72
2022/08/26 16:55:30;;;;;;;11.20;2.17;;;;;;;;;;4999497;28;94467;-72
2022/08/26 16:57:56;;;;;;;2.60;1.20;;;;;;;;;;4995771;28;92633;-72
2022/08/26 17:00:26;;;;;;;6.55;1.67;;;;;;;;;;4993994;28;94232;-72
2022/08/26 17:02:53;;;;;;;3.65;1.45;;;;;;;;;;5006024;28;93923;-72
2022/08/26 17:05:20;;;;;;;7.85;1.85;;;;;;;;;;4999624;28;93505;-72
2022/08/26 17:07:47;;;;;;;9.50;2.00;;;;;;;;;;4993936;28;94256;-72
2022/08/26 17:10:13;;;;;;;6.05;1.80;;;;;;;;;;5005544;28;91577;-72
2022/08/26 17:12:39;;;;;;;6.13;2.00;;;;;;;;;;4998056;28;93492;-73
2022/08/26 17:15:06;;;;;;;3.60;1.50;;;;;;;;;;4997793;28;93368;-72
2022/08/26 17:17:33;;;;;;;2.33;1.48;;;;;;;;;;4994554;28;94910;-72
2022/08/26 17:20:02;;;;;;;4.40;1.60;;;;;;;;;;5006156;28;95775;-72
2022/08/26 17:22:29;;;;;;;5.05;2.10;;;;;;;;;;4997341;28;92401;-73
2022/08/26 17:25:00;;;;;;;3.08;1.60;;;;;;;;;;5008112;28;93083;-72
2022/08/26 17:27:26;;;;;;;3.20;1.80;;;;;;;;;;5015897;28;93477;-72
2022/08/26 17:29:52;;;;;;;4.50;1.30;;;;;;;;;;4996334;28;92509;-72
2022/08/26 17:32:19;;;;;;;4.53;1.95;;;;;;;;;;4997603;28;93113;-72
2022/08/26 17:34:45;;;;;;;2.90;1.60;;;;;;;;;;4996541;28;93412;-72
2022/08/26 17:37:11;;;;;;;3.95;1.50;;;;;;;;;;4995849;28;92529;-72
2022/08/26 17:39:42;;;;;;;3.03;1.15;;;;;;;;;;5001425;28;93838;-72
2022/08/26 17:42:10;;;;;;;4.00;1.48;;;;;;;;;;4998206;28;97699;-72
2022/08/26 17:44:37;;;;;;;10.20;2.03;;;;;;;;;;5003640;28;96249;-72
2022/08/26 17:47:05;;;;;;;7.32;2.20;;;;;;;;;;4995673;28;94218;-72
2022/08/26 17:49:32;;;;;;;5.75;2.42;;;;;;;;;;4997209;28;92462;-73
2022/08/26 17:52:00;;;;;;;4.40;1.50;;;;;;;;;;4996871;28;92534;-72
2022/08/26 17:54:27;;;;;;;7.72;1.52;;;;;;;;;;4995746;28;94054;-72
2022/08/26 17:56:57;;;;;;;5.50;1.85;;;;;;;;;;4995897;28;93635;-72
2022/08/26 17:59:25;;;;;;;6.75;1.42;;;;;;;;;;4996917;28;93555;-72
2022/08/26 18:01:57;;;;;;;5.13;1.67;;;;;;;;;;4996010;28;94166;-71
2022/08/26 18:04:24;;;;;;;3.53;1.40;;;;;;;;;;5000680;28;92544;-72
2022/08/26 18:06:50;;;;;;;7.25;1.67;;;;;;;;;;4987747;28;98167;-72
2022/08/26 18:09:17;;;;;;;5.10;1.80;;;;;;;;;;4985827;28;93184;-72
2022/08/26 18:11:43;;;;;;;4.03;1.92;;;;;;;;;;4983095;28;93839;-72
2022/08/26 18:14:10;;;;;;;6.35;1.98;;;;;;;;;;4990287;28;94335;-72
2022/08/26 18:16:38;;;;;;;5.28;2.00;;;;;;;;;;4997137;28;92483;-73
2022/08/26 18:19:05;;;;;;;4.55;1.80;;;;;;;;;;4993786;28;93865;-72
2022/08/26 18:21:31;;;;;;;6.60;2.00;;;;;;;;;;4994797;28;94134;-72
2022/08/26 18:23:58;;;;;;;3.60;1.45;;;;;;;;;;4980236;28;92295;-74
2022/08/26 18:26:26;;;;;;;5.43;1.55;;;;;;;;;;4994933;28;92409;-72
2022/08/26 18:28:54;;;;;;;3.75;1.77;;;;;;;;;;4980889;28;92574;-72
2022/08/26 18:31:22;;;;;;;6.45;1.83;;;;;;;;;;4989392;28;95006;-73
2022/08/26 18:33:49;;;;;;;6.75;1.88;;;;;;;;;;4991088;28;93122;-73
2022/08/26 18:36:15;;;;;;;3.15;1.80;;;;;;;;;;4990462;28;92429;-74
2022/08/26 18:38:42;;;;;;;4.55;2.15;;;;;;;;;;4989924;28;94118;-76
2022/08/26 18:41:08;;;;;;;3.85;1.77;;;;;;;;;;4982855;28;94170;-73
2022/08/26 18:43:35;;;;;;;2.20;1.75;;;;;;;;;;4975744;28;92538;-74
2022/08/26 18:46:03;;;;;;;4.35;2.13;;;;;;;;;;4979727;28;94920;-73
2022/08/26 18:48:30;;;;;;;2.05;1.88;;;;;;;;;;4992769;28;93386;-73
2022/08/26 18:50:58;;;;;;;2.50;1.45;;;;;;;;;;4992603;28;93724;-74
2022/08/26 18:53:26;;;;;;;8.05;2.20;;;;;;;;;;4988571;28;94552;-73
2022/08/26 18:55:52;;;;;;;3.95;2.05;;;;;;;;;;4990913;28;95196;-72
2022/08/26 18:58:21;;;;;;;7.10;1.85;;;;;;;;;;4986487;28;96664;-73
2022/08/26 19:00:50;;;;;;;5.38;2.40;;;;;;;;;;4986341;28;93455;-73
2022/08/26 19:03:17;;;;;;;6.45;1.90;;;;;;;;;;4987190;28;92438;-73
2022/08/26 19:05:44;;;;;;;5.95;2.13;;;;;;;;;;4990407;28;92825;-74
2022/08/26 19:08:10;;;;;;;4.07;2.05;;;;;;;;;;4986839;28;93082;-74
2022/08/26 19:10:38;;;;;;;4.65;2.00;;;;;;;;;;4990031;28;94079;-74
2022/08/26 19:13:05;;;;;;;4.70;2.05;;;;;;;;;;4993219;28;92743;-74
2022/08/26 19:15:37;;;;;;;3.55;1.95;;;;;;;;;;4993736;28;92523;-73
2022/08/26 19:18:05;;;;;;;5.90;2.10;;;;;;;;;;4986154;28;93351;-74
2022/08/26 19:20:31;;;;;;;4.90;2.17;;;;;;;;;;4986705;28;96550;-74
2022/08/26 19:22:58;;;;;;;5.10;1.80;;;;;;;;;;4984696;28;92671;-74
2022/08/26 19:25:45;;;;;;;6.60;1.80;;;;;;;;;;4981364;28;93204;-74
2022/08/26 19:28:11;;;;;;;5.03;1.70;;;;;;;;;;4986930;28;94211;-74
2022/08/26 19:30:38;;;;;;;4.47;2.00;;;;;;;;;;4996518;28;92511;-74
2022/08/26 19:33:05;;;;;;;3.45;1.48;;;;;;;;;;4983624;28;93202;-74
2022/08/26 19:35:31;;;;;;;3.70;1.80;;;;;;;;;;4980178;28;92510;-75
2022/08/26 19:37:58;;;;;;;2.92;2.08;;;;;;;;;;4984542;28;92913;-74
2022/08/26 19:40:25;;;;;;;3.85;1.63;;;;;;;;;;4982552;28;94476;-74
2022/08/26 19:42:52;;;;;;;2.85;1.95;;;;;;;;;;4985346;28;92636;-75
2022/08/26 19:45:18;;;;;;;3.50;1.65;;;;;;;;;;4981712;28;96318;-75
2022/08/26 19:47:51;;;;;;;10.30;2.15;;;;;;;;;;4979744;28;92979;-75
2022/08/26 19:50:18;;;;;;;6.53;1.90;;;;;;;;;;4986723;28;92515;-74
2022/08/26 19:52:44;;;;;;;5.95;2.08;;;;;;;;;;4987904;28;93149;-74
2022/08/26 19:55:12;;;;;;;4.20;1.75;;;;;;;;;;4993334;28;92494;-74
2022/08/26 19:57:39;;;;;;;4.57;1.67;;;;;;;;;;4992842;28;93989;-74
2022/08/26 20:00:09;;;;;;;6.25;2.10;;;;;;;;;;4990236;28;94149;-75
2022/08/26 20:02:38;;;;;;;7.78;2.10;;;;;;;;;;4992970;28;92087;-74
2022/08/26 20:05:06;;;;;;;4.85;1.98;;;;;;;;;;4985521;28;93259;-74
2022/08/26 20:07:33;;;;;;;5.60;2.20;;;;;;;;;;4992885;28;94129;-74
2022/08/26 20:09:59;;;;;;;4.53;1.88;;;;;;;;;;4986598;28;94911;-75
2022/08/26 20:12:26;;;;;;;6.07;2.47;;;;;;;;;;4990532;28;96625;-74
2022/08/26 20:14:53;;;;;;;4.50;1.90;;;;;;;;;;4993803;28;93426;-74
2022/08/26 20:17:22;;;;;;;3.80;2.53;;;;;;;;;;4991553;28;92987;-74
2022/08/26 20:22:53;;;;;;;3.47;2.20;;;;;;;;;;4989648;28;92620;-74
2022/08/26 20:25:22;;;;;;;4.90;1.98;;;;;;;;;;4991883;28;93936;-74
2022/08/26 20:27:51;;;;;;;8.60;1.73;;;;;;;;;;5002344;28;92662;-74
2022/08/26 20:30:18;;;;;;;4.90;1.95;;;;;;;;;;4989530;28;92871;-74
2022/08/26 20:32:44;;;;;;;6.47;2.05;;;;;;;;;;4988672;28;94071;-74
2022/08/26 20:35:11;;;;;;;4.25;1.80;;;;;;;;;;4982899;28;96788;-74
2022/08/26 20:37:38;;;;;;;2.72;1.77;;;;;;;;;;4985234;28;92534;-74
2022/08/26 20:40:06;;;;;;;4.78;2.00;;;;;;;;;;4986345;28;94374;-74
2022/08/26 20:42:33;;;;;;;5.00;2.35;;;;;;;;;;4991577;28;92467;-74
2022/08/26 20:44:59;;;;;;;3.72;1.70;;;;;;;;;;4993006;28;94061;-74
2022/08/26 20:47:26;;;;;;;7.90;1.92;;;;;;;;;;4995392;28;94138;-74
2022/08/26 20:49:54;;;;;;;6.25;2.00;;;;;;;;;;4981968;28;92687;-74
2022/08/26 20:52:20;;;;;;;2.47;1.80;;;;;;;;;;4985040;28;93076;-74
2022/08/26 20:54:47;;;;;;;5.35;1.80;;;;;;;;;;4984416;28;94098;-73
2022/08/26 20:57:13;;;;;;;3.13;1.70;;;;;;;;;;4990830;28;92831;-74
2022/08/26 20:59:39;;;;;;;6.90;1.75;;;;;;;;;;4993967;28;94782;-73
2022/08/26 21:02:06;;;;;;;6.57;1.85;;;;;;;;;;4990256;28;94209;-74
2022/08/26 21:04:33;;;;;;;3.80;1.73;;;;;;;;;;4992356;28;94170;-74
2022/08/26 21:06:59;;;;;;;3.85;1.88;;;;;;;;;;4981788;28;93871;-76
2022/08/26 21:09:26;;;;;;;5.88;1.98;;;;;;;;;;4990071;28;92740;-74
2022/08/26 21:11:54;;;;;;;5.75;1.67;;;;;;;;;;4991441;28;93882;-74
2022/08/26 21:14:22;;;;;;;2.92;1.85;;;;;;;;;;5005529;28;93434;-74
2022/08/26 21:16:50;;;;;;;8.13;1.92;;;;;;;;;;5005463;28;92222;-73
2022/08/26 21:19:17;;;;;;;5.85;2.05;;;;;;;;;;5017796;28;92459;-74
2022/08/26 21:21:45;;;;;;;5.93;1.75;;;;;;;;;;5002061;28;92464;-74
2022/08/26 21:24:12;;;;;;;6.22;2.03;;;;;;;;;;4996021;28;95123;-73
2022/08/26 21:26:38;;;;;;;5.90;2.20;;;;;;;;;;4998489;28;94505;-74
2022/08/26 21:29:06;;;;;;;3.78;1.67;;;;;;;;;;4999739;28;92513;-74
2022/08/26 21:31:33;;;;;;;6.30;1.95;;;;;;;;;;5006350;28;93907;-74
2022/08/26 21:34:00;;;;;;;6.20;2.00;;;;;;;;;;4996041;28;94462;-73
2022/08/26 21:36:26;;;;;;;4.60;1.65;;;;;;;;;;5002828;28;92509;-74
2022/08/26 21:38:56;;;;;;;11.75;2.70;;;;;;;;;;4989966;28;94083;-73
2022/08/26 21:41:23;;;;;;;4.68;1.95;;;;;;;;;;4999266;28;92559;-74
2022/08/26 21:43:52;;;;;;;6.13;2.50;;;;;;;;;;4991338;28;95195;-74
2022/08/26 21:46:20;;;;;;;7.22;2.10;;;;;;;;;;4996746;28;94207;-74
2022/08/26 21:48:54;;;;;;;7.10;2.05;;;;;;;;;;4993694;28;95384;-74
2022/08/26 21:51:22;;;;;;;3.63;1.73;;;;;;;;;;4997233;28;95370;-74
2022/08/26 21:53:49;;;;;;;6.70;2.53;;;;;;;;;;4998355;28;93982;-74
2022/08/26 21:56:16;;;;;;;3.72;2.72;;;;;;;;;;5001655;28;93046;-74
2022/08/26 21:58:43;;;;;;;11.30;3.60;;;;;;;;;;4996503;28;93202;-74
2022/08/26 22:01:10;;;;;;;9.52;3.35;;;;;;;;;;4994088;28;93470;-74
2022/08/26 22:03:37;;;;;;;6.90;2.60;;;;;;;;;;4999117;28;92530;-74